createdAt,value
2023-01-25T00:01:17.791Z,9.63
2023-01-25T00:06:19.155Z,8.75
2023-01-25T00:11:21.222Z,9.73
2023-01-25T00:16:24.130Z,9.20
2023-01-25T00:21:26.305Z,9.45
2023-01-25T00:26:30.720Z,8.82
2023-01-25T00:31:37.288Z,9.40
2023-01-25T00:36:38.621Z,8.80
2023-01-25T00:41:40.381Z,8.90
2023-01-25T00:46:41.800Z,9.00
2023-01-25T00:51:43.193Z,9.70
2023-01-25T00:56:45.466Z,9.80
2023-01-25T01:01:47.049Z,7.07
2023-01-25T01:06:48.391Z,9.40
2023-01-25T01:11:50.093Z,9.90
2023-01-25T01:16:51.517Z,9.18
2023-01-25T01:21:52.904Z,7.65
2023-01-25T01:26:54.255Z,9.75
2023-01-25T01:31:56.333Z,9.75
2023-01-25T01:36:57.750Z,9.77
2023-01-25T01:41:59.138Z,9.75
2023-01-25T01:47:00.556Z,9.15
2023-01-25T01:52:16.131Z,8.45
2023-01-25T01:57:24.774Z,8.55
2023-01-25T02:02:27.071Z,8.60
2023-01-25T02:07:37.148Z,9.68
2023-01-25T02:12:38.714Z,8.18
2023-01-25T02:17:41.731Z,8.30
2023-01-25T02:23:11.384Z,8.68
2023-01-25T02:28:18.680Z,8.90
2023-01-25T02:33:23.913Z,7.43
2023-01-25T02:38:25.382Z,8.63
2023-01-25T02:43:32.684Z,8.68
2023-01-25T02:48:34.011Z,8.20
2023-01-25T02:53:35.558Z,7.95
2023-01-25T02:58:36.940Z,8.98
2023-01-25T03:03:38.280Z,7.57
2023-01-25T03:08:39.694Z,8.43
2023-01-25T03:13:41.011Z,9.30
2023-01-25T03:18:43.165Z,8.57
2023-01-25T03:23:45.710Z,8.38
2023-01-25T03:28:47.174Z,9.25
2023-01-25T03:33:49.655Z,8.95
2023-01-25T03:38:51.015Z,9.30
2023-01-25T03:43:52.401Z,8.55
2023-01-25T03:48:53.791Z,8.32
2023-01-25T03:53:55.178Z,7.60
2023-01-25T03:58:56.550Z,8.95
2023-01-25T04:03:57.883Z,7.78
2023-01-25T04:08:59.249Z,8.50
2023-01-25T04:14:00.652Z,9.70
2023-01-25T04:19:02.018Z,8.10
2023-01-25T04:24:03.658Z,8.30
2023-01-25T04:29:05.047Z,8.63
2023-01-25T04:34:06.367Z,8.35
2023-01-25T04:39:07.744Z,8.00
2023-01-25T04:44:09.176Z,10.15
2023-01-25T04:49:10.517Z,9.07
2023-01-25T04:54:11.931Z,9.38
2023-01-25T04:59:13.499Z,8.73
2023-01-25T05:04:14.957Z,9.77
2023-01-25T05:09:17.185Z,9.13
2023-01-25T05:14:18.536Z,9.45
2023-01-25T05:19:19.871Z,9.18
2023-01-25T05:24:21.302Z,9.93
2023-01-25T05:29:22.710Z,9.20
2023-01-25T05:34:24.107Z,9.60
2023-01-25T05:39:25.751Z,8.93
2023-01-25T05:44:27.225Z,9.45
2023-01-25T05:49:28.595Z,9.45
2023-01-25T05:54:30.164Z,10.13
2023-01-25T05:59:31.521Z,9.32
2023-01-25T06:04:32.950Z,9.82
2023-01-25T06:09:34.291Z,10.10
2023-01-25T06:14:35.618Z,10.00
2023-01-25T06:19:37.149Z,9.07
2023-01-25T06:24:38.473Z,8.95
2023-01-25T06:29:39.856Z,10.60
2023-01-25T06:34:41.299Z,9.07
2023-01-25T06:39:42.809Z,9.60
2023-01-25T06:44:44.175Z,9.63
2023-01-25T06:49:45.536Z,10.70
2023-01-25T06:54:46.869Z,9.32
2023-01-25T06:59:48.273Z,9.25
2023-01-25T07:04:49.653Z,10.00
2023-01-25T07:09:50.982Z,9.10
2023-01-25T07:14:52.365Z,9.98
2023-01-25T07:19:53.703Z,10.68
2023-01-25T07:24:57.755Z,10.35
2023-01-25T07:29:59.078Z,11.30
2023-01-25T07:35:00.404Z,10.50
2023-01-25T07:40:01.762Z,9.80
2023-01-25T07:45:03.387Z,10.32
2023-01-25T07:50:05.080Z,10.57
2023-01-25T07:55:06.998Z,10.40
2023-01-25T08:00:09.880Z,11.52
2023-01-25T08:05:11.531Z,10.95
2023-01-25T08:10:13.037Z,10.30
2023-01-25T08:15:14.620Z,9.90
2023-01-25T08:20:16.191Z,11.35
2023-01-25T08:25:17.673Z,10.30
2023-01-25T08:30:19.200Z,9.23
2023-01-25T08:35:23.392Z,11.50
2023-01-25T08:40:24.712Z,11.57
2023-01-25T08:45:26.048Z,10.55
2023-01-25T08:50:27.552Z,11.00
2023-01-25T08:55:29.002Z,11.95
2023-01-25T09:00:30.412Z,10.07
2023-01-25T09:05:34.637Z,10.38
2023-01-25T09:10:36.151Z,10.45
2023-01-25T09:15:37.470Z,10.15
2023-01-25T09:20:39.902Z,10.20
2023-01-25T09:25:41.307Z,10.00
2023-01-25T09:30:47.908Z,10.65
2023-01-25T09:35:51.217Z,9.45
2023-01-25T09:41:26.219Z,9.27
2023-01-25T09:46:40.771Z,8.52
2023-01-25T09:52:12.828Z,9.93
2023-01-25T09:57:37.426Z,9.45
2023-01-25T10:02:49.990Z,10.13
2023-01-25T10:08:07.319Z,9.10
2023-01-25T10:13:12.183Z,8.60
2023-01-25T10:18:52.609Z,8.55
2023-01-25T10:24:16.045Z,9.32
2023-01-25T10:29:22.760Z,8.73
2023-01-25T10:34:35.473Z,9.85
2023-01-25T10:39:59.547Z,9.85
2023-01-25T10:45:00.860Z,8.85
2023-01-25T10:50:02.911Z,8.63
2023-01-25T10:55:28.683Z,9.40
2023-01-25T11:00:38.524Z,9.90
2023-01-25T11:05:41.687Z,10.18
2023-01-25T11:10:46.195Z,8.30
2023-01-25T11:16:14.461Z,10.48
2023-01-25T11:26:20.213Z,9.48
2023-01-25T11:31:22.863Z,10.60
2023-01-25T11:36:39.664Z,9.05
2023-01-25T11:42:18.991Z,9.30
2023-01-25T11:47:41.707Z,9.40
2023-01-25T11:53:13.820Z,8.85
2023-01-25T11:58:18.104Z,9.63
2023-01-25T12:03:47.120Z,9.30
2023-01-25T12:09:10.695Z,10.63
2023-01-25T12:14:43.757Z,9.70
2023-01-25T12:20:00.651Z,9.68
2023-01-25T12:25:17.853Z,9.40
2023-01-25T12:30:54.284Z,9.47
2023-01-25T12:36:11.855Z,8.95
2023-01-25T12:41:39.924Z,9.40
2023-01-25T12:46:51.192Z,10.27
2023-01-25T12:51:56.105Z,9.10
2023-01-25T12:57:12.643Z,10.15
2023-01-25T13:02:41.999Z,10.77
2023-01-25T13:08:02.078Z,10.48
2023-01-25T13:13:20.403Z,9.30
2023-01-25T13:18:24.781Z,9.82
2023-01-25T13:23:45.835Z,9.27
2023-01-25T13:28:49.503Z,9.73
2023-01-25T13:33:50.923Z,8.77
2023-01-25T13:38:52.242Z,9.55
2023-01-25T13:44:16.833Z,9.60
2023-01-25T13:49:24.495Z,9.68
2023-01-25T13:59:28.334Z,8.05
2023-01-25T14:04:32.926Z,9.60
2023-01-25T14:09:34.393Z,10.25
2023-01-25T14:14:35.959Z,9.25
2023-01-25T14:19:40.331Z,10.10
2023-01-25T14:24:41.775Z,8.35
2023-01-25T14:29:48.550Z,10.18
2023-01-25T14:34:49.958Z,10.17
2023-01-25T14:39:52.097Z,10.70
2023-01-25T14:44:53.648Z,9.85
2023-01-25T14:49:54.984Z,9.50
2023-01-25T14:54:58.786Z,8.98
2023-01-25T15:00:01.921Z,10.75
2023-01-25T15:05:15.239Z,10.23
2023-01-25T15:10:20.677Z,10.25
2023-01-25T15:15:23.522Z,10.60
2023-01-25T15:20:39.435Z,11.10
2023-01-25T15:26:23.491Z,9.07
2023-01-25T15:31:29.719Z,10.75
2023-01-25T15:36:32.594Z,9.38
2023-01-25T15:41:33.929Z,12.00
2023-01-25T15:46:37.243Z,10.80
2023-01-25T15:51:38.662Z,9.30
2023-01-25T15:56:42.484Z,10.27
2023-01-25T16:01:44.322Z,12.23
2023-01-25T16:06:49.985Z,11.18
2023-01-25T16:11:56.426Z,11.13
2023-01-25T16:22:34.619Z,10.85
2023-01-25T16:27:36.499Z,11.50
2023-01-25T16:32:38.304Z,11.00
2023-01-25T16:37:40.212Z,10.15
2023-01-25T16:42:41.760Z,9.48
2023-01-25T16:47:43.721Z,10.88
2023-01-25T16:52:46.124Z,10.80
2023-01-25T16:57:51.367Z,12.38
2023-01-25T17:02:59.083Z,13.02
2023-01-25T17:08:01.338Z,12.02
2023-01-25T17:18:19.620Z,12.68
2023-01-25T17:23:22.667Z,12.43
2023-01-25T17:28:24.283Z,11.52
2023-01-25T17:33:26.069Z,11.50
2023-01-25T17:38:28.073Z,11.23
2023-01-25T17:43:31.701Z,11.95
2023-01-25T17:48:34.644Z,12.35
2023-01-25T17:53:36.171Z,11.35
2023-01-25T17:58:43.959Z,12.55
2023-01-25T18:08:49.933Z,14.35
2023-01-25T18:13:56.119Z,12.52
2023-01-25T18:19:00.501Z,12.27
2023-01-25T18:24:06.219Z,10.07
2023-01-25T18:29:12.912Z,11.27
2023-01-25T18:34:14.388Z,13.63
2023-01-25T18:39:15.875Z,13.35
2023-01-25T18:44:17.602Z,13.30
2023-01-25T18:49:19.048Z,14.50
2023-01-25T18:54:22.782Z,13.27
2023-01-25T18:59:24.479Z,14.90
2023-01-25T19:04:28.640Z,13.95
2023-01-25T19:09:30.854Z,15.57
2023-01-25T19:14:32.309Z,13.63
2023-01-25T19:19:34.009Z,11.52
2023-01-25T19:24:35.722Z,13.32
2023-01-25T19:29:37.296Z,13.40
2023-01-25T19:34:38.896Z,14.55
2023-01-25T19:39:40.661Z,13.38
2023-01-25T19:44:42.753Z,12.07
2023-01-25T19:49:49.651Z,12.40
2023-01-25T19:54:51.880Z,12.43
2023-01-25T19:59:53.852Z,12.98
2023-01-25T20:04:56.137Z,13.25
2023-01-25T20:10:01.019Z,12.93
2023-01-25T20:15:04.103Z,12.48
2023-01-25T20:20:06.375Z,12.23
2023-01-25T20:25:08.415Z,12.48
2023-01-25T20:30:10.873Z,13.38
2023-01-25T20:35:12.935Z,14.00
2023-01-25T20:40:17.371Z,13.63
2023-01-25T20:45:22.393Z,13.82
2023-01-25T20:50:23.995Z,13.75
2023-01-25T20:55:26.429Z,13.73
2023-01-25T21:00:34.931Z,14.65
2023-01-25T21:05:37.354Z,14.80
2023-01-25T21:10:38.944Z,13.07
2023-01-25T21:15:40.561Z,12.73
2023-01-25T21:20:42.144Z,13.35
2023-01-25T21:25:54.888Z,14.18
2023-01-25T21:31:05.026Z,14.02
2023-01-25T21:36:19.105Z,12.20
2023-01-25T21:41:26.920Z,13.50
2023-01-25T21:46:28.689Z,10.77
2023-01-25T21:51:35.967Z,11.80
2023-01-25T21:56:47.818Z,10.73
2023-01-25T22:01:51.284Z,11.43
2023-01-25T22:06:56.730Z,11.85
2023-01-25T22:11:58.592Z,10.45
2023-01-25T22:17:00.684Z,12.98
2023-01-25T22:22:02.271Z,12.63
2023-01-25T22:27:32.961Z,12.80
2023-01-25T22:32:34.636Z,14.07
2023-01-25T22:37:38.038Z,13.38
2023-01-25T22:42:39.539Z,12.23
2023-01-25T22:47:43.094Z,12.52
2023-01-25T22:52:44.549Z,13.10
2023-01-25T22:57:46.131Z,12.65
2023-01-25T23:02:47.713Z,11.02
2023-01-25T23:07:49.226Z,9.55
2023-01-25T23:12:53.174Z,10.20
2023-01-25T23:18:12.997Z,10.05
2023-01-25T23:23:14.722Z,7.97
2023-01-25T23:28:16.180Z,8.23
2023-01-25T23:33:17.728Z,8.55
2023-01-25T23:38:19.209Z,8.35
2023-01-25T23:43:21.311Z,9.07
2023-01-25T23:48:23.235Z,9.30
2023-01-25T23:53:26.227Z,9.85
2023-01-25T23:58:28.795Z,9.85
